sensor_id;sensor_type;location;lat;lon;timestamp;temperature;humidity
29731;DHT22;16639;51.488;0.152;2023-02-26T00:01:47;4.50;99.90
29731;DHT22;16639;51.488;0.152;2023-02-26T00:04:16;4.40;99.90
29731;DHT22;16639;51.488;0.152;2023-02-26T00:06:43;4.40;99.90
29731;DHT22;16639;51.488;0.152;2023-02-26T00:09:24;4.50;99.90
29731;DHT22;16639;51.488;0.152;2023-02-26T00:11:52;4.80;99.90
29731;DHT22;16639;51.488;0.152;2023-02-26T00:14:19;4.60;99.90
29731;DHT22;16639;51.488;0.152;2023-02-26T00:19:34;4.60;99.90
29731;DHT22;16639;51.488;0.152;2023-02-26T00:22:02;4.60;99.90
29731;DHT22;16639;51.488;0.152;2023-02-26T00:24:29;4.50;99.90
29731;DHT22;16639;51.488;0.152;2023-02-26T00:26:57;4.60;99.90
29731;DHT22;16639;51.488;0.152;2023-02-26T00:29:25;4.50;99.90
29731;DHT22;16639;51.488;0.152;2023-02-26T00:31:53;4.50;99.90
29731;DHT22;16639;51.488;0.152;2023-02-26T00:34:20;4.60;99.90
29731;DHT22;16639;51.488;0.152;2023-02-26T00:36:58;4.40;99.90
29731;DHT22;16639;51.488;0.152;2023-02-26T00:42:15;4.30;99.90
29731;DHT22;16639;51.488;0.152;2023-02-26T00:44:43;4.30;99.90
29731;DHT22;16639;51.488;0.152;2023-02-26T00:47:39;4.30;99.90
29731;DHT22;16639;51.488;0.152;2023-02-26T00:50:17;4.20;99.90
29731;DHT22;16639;51.488;0.152;2023-02-26T00:55:54;4.20;99.90
29731;DHT22;16639;51.488;0.152;2023-02-26T00:58:21;4.30;99.90
29731;DHT22;16639;51.488;0.152;2023-02-26T01:00:49;4.30;99.90
29731;DHT22;16639;51.488;0.152;2023-02-26T01:03:16;4.30;99.90
29731;DHT22;16639;51.488;0.152;2023-02-26T01:05:44;4.30;99.90
29731;DHT22;16639;51.488;0.152;2023-02-26T01:08:33;4.20;99.90
29731;DHT22;16639;51.488;0.152;2023-02-26T01:11:06;4.30;99.90
29731;DHT22;16639;51.488;0.152;2023-02-26T01:13:33;4.30;99.90
29731;DHT22;16639;51.488;0.152;2023-02-26T01:16:06;4.30;99.90
29731;DHT22;16639;51.488;0.152;2023-02-26T01:18:42;4.30;99.90
29731;DHT22;16639;51.488;0.152;2023-02-26T01:21:16;4.20;99.90
29731;DHT22;16639;51.488;0.152;2023-02-26T01:23:46;4.10;99.90
29731;DHT22;16639;51.488;0.152;2023-02-26T01:28:44;4.30;99.90
29731;DHT22;16639;51.488;0.152;2023-02-26T01:31:41;4.40;99.90
29731;DHT22;16639;51.488;0.152;2023-02-26T01:34:18;4.20;99.90
29731;DHT22;16639;51.488;0.152;2023-02-26T01:42:31;4.30;99.90
29731;DHT22;16639;51.488;0.152;2023-02-26T01:45:14;4.20;99.90
29731;DHT22;16639;51.488;0.152;2023-02-26T01:50:19;4.10;99.90
29731;DHT22;16639;51.488;0.152;2023-02-26T01:55:17;4.10;99.90
29731;DHT22;16639;51.488;0.152;2023-02-26T01:57:46;4.10;99.90
29731;DHT22;16639;51.488;0.152;2023-02-26T02:00:15;4.10;99.90
29731;DHT22;16639;51.488;0.152;2023-02-26T02:02:42;4.10;99.90
29731;DHT22;16639;51.488;0.152;2023-02-26T02:05:14;4.20;99.90
29731;DHT22;16639;51.488;0.152;2023-02-26T02:07:43;4.10;99.90
29731;DHT22;16639;51.488;0.152;2023-02-26T02:10:10;4.10;99.90
29731;DHT22;16639;51.488;0.152;2023-02-26T02:12:50;4.00;99.90
29731;DHT22;16639;51.488;0.152;2023-02-26T02:18:34;4.00;99.90
29731;DHT22;16639;51.488;0.152;2023-02-26T02:24:43;4.60;99.90
29731;DHT22;16639;51.488;0.152;2023-02-26T02:27:40;4.00;99.90
29731;DHT22;16639;51.488;0.152;2023-02-26T02:30:27;4.00;99.90
29731;DHT22;16639;51.488;0.152;2023-02-26T02:33:11;4.00;99.90
29731;DHT22;16639;51.488;0.152;2023-02-26T02:35:57;4.30;99.90
29731;DHT22;16639;51.488;0.152;2023-02-26T02:41:06;4.00;99.90
29731;DHT22;16639;51.488;0.152;2023-02-26T02:43:36;3.90;99.90
29731;DHT22;16639;51.488;0.152;2023-02-26T02:46:09;3.90;99.90
29731;DHT22;16639;51.488;0.152;2023-02-26T02:48:43;3.90;99.90
29731;DHT22;16639;51.488;0.152;2023-02-26T02:51:20;3.90;99.90
29731;DHT22;16639;51.488;0.152;2023-02-26T02:53:58;3.90;99.90
29731;DHT22;16639;51.488;0.152;2023-02-26T02:56:34;3.90;99.90
29731;DHT22;16639;51.488;0.152;2023-02-26T02:59:14;3.90;99.90
29731;DHT22;16639;51.488;0.152;2023-02-26T03:01:43;3.90;99.90
29731;DHT22;16639;51.488;0.152;2023-02-26T03:04:15;3.70;99.90
29731;DHT22;16639;51.488;0.152;2023-02-26T03:06:43;3.90;99.90
29731;DHT22;16639;51.488;0.152;2023-02-26T03:09:12;4.00;99.90
29731;DHT22;16639;51.488;0.152;2023-02-26T03:11:40;4.00;99.90
29731;DHT22;16639;51.488;0.152;2023-02-26T03:14:08;4.10;99.90
29731;DHT22;16639;51.488;0.152;2023-02-26T03:19:48;4.00;99.90
29731;DHT22;16639;51.488;0.152;2023-02-26T03:25:28;4.00;99.90
29731;DHT22;16639;51.488;0.152;2023-02-26T03:28:38;4.00;99.90
29731;DHT22;16639;51.488;0.152;2023-02-26T03:31:32;3.90;99.90
29731;DHT22;16639;51.488;0.152;2023-02-26T03:34:27;3.90;99.90
29731;DHT22;16639;51.488;0.152;2023-02-26T03:37:00;3.90;99.90
29731;DHT22;16639;51.488;0.152;2023-02-26T03:39:35;3.90;99.90
29731;DHT22;16639;51.488;0.152;2023-02-26T03:44:58;4.00;99.90
29731;DHT22;16639;51.488;0.152;2023-02-26T03:47:28;4.80;99.90
29731;DHT22;16639;51.488;0.152;2023-02-26T03:50:10;4.60;99.90
29731;DHT22;16639;51.488;0.152;2023-02-26T03:52:41;4.00;99.90
29731;DHT22;16639;51.488;0.152;2023-02-26T03:55:19;4.00;99.90
29731;DHT22;16639;51.488;0.152;2023-02-26T03:57:47;4.00;99.90
29731;DHT22;16639;51.488;0.152;2023-02-26T04:00:16;4.00;99.90
29731;DHT22;16639;51.488;0.152;2023-02-26T04:03:04;4.10;99.90
29731;DHT22;16639;51.488;0.152;2023-02-26T04:05:40;4.10;99.90
29731;DHT22;16639;51.488;0.152;2023-02-26T04:08:09;4.10;99.90
29731;DHT22;16639;51.488;0.152;2023-02-26T04:10:44;4.10;99.90
29731;DHT22;16639;51.488;0.152;2023-02-26T04:13:11;4.50;99.90
29731;DHT22;16639;51.488;0.152;2023-02-26T04:15:39;4.10;99.90
29731;DHT22;16639;51.488;0.152;2023-02-26T04:18:06;4.10;99.90
29731;DHT22;16639;51.488;0.152;2023-02-26T04:20:34;4.20;99.90
29731;DHT22;16639;51.488;0.152;2023-02-26T04:23:01;4.20;99.90
29731;DHT22;16639;51.488;0.152;2023-02-26T04:25:29;4.30;99.90
29731;DHT22;16639;51.488;0.152;2023-02-26T04:27:56;4.30;99.90
29731;DHT22;16639;51.488;0.152;2023-02-26T04:30:24;4.20;99.90
29731;DHT22;16639;51.488;0.152;2023-02-26T04:32:51;4.30;99.90
29731;DHT22;16639;51.488;0.152;2023-02-26T04:35:19;4.30;99.90
29731;DHT22;16639;51.488;0.152;2023-02-26T04:37:46;4.30;99.90
29731;DHT22;16639;51.488;0.152;2023-02-26T04:40:14;4.30;99.90
29731;DHT22;16639;51.488;0.152;2023-02-26T04:42:41;4.30;99.90
29731;DHT22;16639;51.488;0.152;2023-02-26T04:45:09;4.80;99.90
29731;DHT22;16639;51.488;0.152;2023-02-26T04:47:36;4.30;99.90
29731;DHT22;16639;51.488;0.152;2023-02-26T04:50:04;4.40;99.90
29731;DHT22;16639;51.488;0.152;2023-02-26T04:52:31;4.30;99.90
29731;DHT22;16639;51.488;0.152;2023-02-26T04:54:59;4.40;99.90
29731;DHT22;16639;51.488;0.152;2023-02-26T04:57:26;4.40;99.90
29731;DHT22;16639;51.488;0.152;2023-02-26T04:59:54;4.50;99.90
29731;DHT22;16639;51.488;0.152;2023-02-26T05:02:21;4.40;99.90
29731;DHT22;16639;51.488;0.152;2023-02-26T05:04:48;4.40;99.90
29731;DHT22;16639;51.488;0.152;2023-02-26T05:07:16;4.40;99.90
29731;DHT22;16639;51.488;0.152;2023-02-26T05:09:44;4.40;99.90
29731;DHT22;16639;51.488;0.152;2023-02-26T05:12:11;4.40;99.90
29731;DHT22;16639;51.488;0.152;2023-02-26T05:14:38;4.40;99.90
29731;DHT22;16639;51.488;0.152;2023-02-26T05:17:06;5.60;99.90
29731;DHT22;16639;51.488;0.152;2023-02-26T05:19:33;4.50;99.90
29731;DHT22;16639;51.488;0.152;2023-02-26T05:22:01;4.50;99.90
29731;DHT22;16639;51.488;0.152;2023-02-26T05:24:29;3.20;99.90
29731;DHT22;16639;51.488;0.152;2023-02-26T05:26:56;4.50;99.90
29731;DHT22;16639;51.488;0.152;2023-02-26T05:29:23;4.50;99.90
29731;DHT22;16639;51.488;0.152;2023-02-26T05:31:52;5.10;99.90
29731;DHT22;16639;51.488;0.152;2023-02-26T05:34:19;4.50;99.90
29731;DHT22;16639;51.488;0.152;2023-02-26T05:36:47;4.40;99.90
29731;DHT22;16639;51.488;0.152;2023-02-26T05:39:15;4.50;99.90
29731;DHT22;16639;51.488;0.152;2023-02-26T05:41:42;5.00;99.90
29731;DHT22;16639;51.488;0.152;2023-02-26T05:44:09;4.40;99.90
29731;DHT22;16639;51.488;0.152;2023-02-26T05:46:37;4.90;99.90
29731;DHT22;16639;51.488;0.152;2023-02-26T05:49:04;4.30;99.90
29731;DHT22;16639;51.488;0.152;2023-02-26T05:51:32;4.20;99.90
29731;DHT22;16639;51.488;0.152;2023-02-26T05:53:59;4.30;99.90
29731;DHT22;16639;51.488;0.152;2023-02-26T05:56:26;4.20;99.90
29731;DHT22;16639;51.488;0.152;2023-02-26T05:58:55;4.30;99.90
29731;DHT22;16639;51.488;0.152;2023-02-26T06:01:23;4.20;99.90
29731;DHT22;16639;51.488;0.152;2023-02-26T06:03:50;4.20;99.90
29731;DHT22;16639;51.488;0.152;2023-02-26T06:06:17;4.20;99.90
29731;DHT22;16639;51.488;0.152;2023-02-26T06:08:45;4.10;99.90
29731;DHT22;16639;51.488;0.152;2023-02-26T06:11:13;4.20;99.90
29731;DHT22;16639;51.488;0.152;2023-02-26T06:13:40;4.20;99.90
29731;DHT22;16639;51.488;0.152;2023-02-26T06:16:09;4.20;99.90
29731;DHT22;16639;51.488;0.152;2023-02-26T06:18:37;4.10;99.90
29731;DHT22;16639;51.488;0.152;2023-02-26T06:21:04;4.20;99.90
29731;DHT22;16639;51.488;0.152;2023-02-26T06:23:32;4.20;99.90
29731;DHT22;16639;51.488;0.152;2023-02-26T06:25:59;4.20;99.90
29731;DHT22;16639;51.488;0.152;2023-02-26T06:28:26;4.20;99.90
29731;DHT22;16639;51.488;0.152;2023-02-26T06:30:54;4.20;99.90
29731;DHT22;16639;51.488;0.152;2023-02-26T06:33:22;4.20;99.90
29731;DHT22;16639;51.488;0.152;2023-02-26T06:35:50;4.20;99.90
29731;DHT22;16639;51.488;0.152;2023-02-26T06:38:18;4.10;99.90
29731;DHT22;16639;51.488;0.152;2023-02-26T06:40:47;4.10;99.90
29731;DHT22;16639;51.488;0.152;2023-02-26T06:43:14;4.00;99.90
29731;DHT22;16639;51.488;0.152;2023-02-26T06:45:41;4.00;99.90
29731;DHT22;16639;51.488;0.152;2023-02-26T06:48:09;4.80;99.90
29731;DHT22;16639;51.488;0.152;2023-02-26T06:50:36;4.00;99.90
29731;DHT22;16639;51.488;0.152;2023-02-26T06:53:04;4.00;99.90
29731;DHT22;16639;51.488;0.152;2023-02-26T06:55:32;3.90;99.90
29731;DHT22;16639;51.488;0.152;2023-02-26T06:57:59;4.00;99.90
29731;DHT22;16639;51.488;0.152;2023-02-26T07:00:27;3.90;99.90
29731;DHT22;16639;51.488;0.152;2023-02-26T07:02:54;3.90;99.90
29731;DHT22;16639;51.488;0.152;2023-02-26T07:05:21;4.00;99.90
29731;DHT22;16639;51.488;0.152;2023-02-26T07:07:49;4.00;99.90
29731;DHT22;16639;51.488;0.152;2023-02-26T07:10:17;4.10;99.90
29731;DHT22;16639;51.488;0.152;2023-02-26T07:12:44;4.20;99.90
29731;DHT22;16639;51.488;0.152;2023-02-26T07:15:11;4.10;99.90
29731;DHT22;16639;51.488;0.152;2023-02-26T07:17:39;4.20;99.90
29731;DHT22;16639;51.488;0.152;2023-02-26T07:20:07;4.20;99.90
29731;DHT22;16639;51.488;0.152;2023-02-26T07:22:36;4.10;99.90
29731;DHT22;16639;51.488;0.152;2023-02-26T07:25:04;4.10;99.90
29731;DHT22;16639;51.488;0.152;2023-02-26T07:27:33;4.90;99.90
29731;DHT22;16639;51.488;0.152;2023-02-26T07:30:01;4.20;99.90
29731;DHT22;16639;51.488;0.152;2023-02-26T07:32:28;4.20;99.90
29731;DHT22;16639;51.488;0.152;2023-02-26T07:34:56;4.30;99.90
29731;DHT22;16639;51.488;0.152;2023-02-26T07:37:23;4.60;99.90
29731;DHT22;16639;51.488;0.152;2023-02-26T07:39:51;4.30;99.90
29731;DHT22;16639;51.488;0.152;2023-02-26T07:42:18;4.30;99.90
29731;DHT22;16639;51.488;0.152;2023-02-26T07:44:46;4.30;99.90
29731;DHT22;16639;51.488;0.152;2023-02-26T07:47:13;4.30;99.90
29731;DHT22;16639;51.488;0.152;2023-02-26T07:49:41;4.30;99.90
29731;DHT22;16639;51.488;0.152;2023-02-26T07:52:08;4.40;99.90
29731;DHT22;16639;51.488;0.152;2023-02-26T07:54:36;4.30;99.90
29731;DHT22;16639;51.488;0.152;2023-02-26T07:57:04;4.40;99.90
29731;DHT22;16639;51.488;0.152;2023-02-26T07:59:31;4.50;99.90
29731;DHT22;16639;51.488;0.152;2023-02-26T08:01:58;4.40;99.90
29731;DHT22;16639;51.488;0.152;2023-02-26T08:04:26;4.30;99.90
29731;DHT22;16639;51.488;0.152;2023-02-26T08:06:53;5.40;99.90
29731;DHT22;16639;51.488;0.152;2023-02-26T08:09:22;4.50;99.90
29731;DHT22;16639;51.488;0.152;2023-02-26T08:11:49;4.50;99.90
29731;DHT22;16639;51.488;0.152;2023-02-26T08:14:17;4.60;99.90
29731;DHT22;16639;51.488;0.152;2023-02-26T08:16:44;4.70;99.90
29731;DHT22;16639;51.488;0.152;2023-02-26T08:19:11;4.60;99.90
29731;DHT22;16639;51.488;0.152;2023-02-26T08:21:39;4.80;99.90
29731;DHT22;16639;51.488;0.152;2023-02-26T08:24:06;4.80;99.90
29731;DHT22;16639;51.488;0.152;2023-02-26T08:26:35;4.80;99.90
29731;DHT22;16639;51.488;0.152;2023-02-26T08:29:03;4.80;99.90
29731;DHT22;16639;51.488;0.152;2023-02-26T08:31:30;4.90;99.90
29731;DHT22;16639;51.488;0.152;2023-02-26T08:34:00;4.90;99.90
29731;DHT22;16639;51.488;0.152;2023-02-26T08:36:28;4.90;99.90
29731;DHT22;16639;51.488;0.152;2023-02-26T08:38:55;4.90;99.90
29731;DHT22;16639;51.488;0.152;2023-02-26T08:41:23;5.00;99.90
29731;DHT22;16639;51.488;0.152;2023-02-26T08:43:51;5.00;99.90
29731;DHT22;16639;51.488;0.152;2023-02-26T08:46:18;4.50;99.90
29731;DHT22;16639;51.488;0.152;2023-02-26T08:48:46;5.00;99.90
29731;DHT22;16639;51.488;0.152;2023-02-26T08:51:14;5.10;99.90
29731;DHT22;16639;51.488;0.152;2023-02-26T08:53:41;5.10;99.90
29731;DHT22;16639;51.488;0.152;2023-02-26T08:56:11;5.00;99.90
29731;DHT22;16639;51.488;0.152;2023-02-26T08:58:39;5.10;99.90
29731;DHT22;16639;51.488;0.152;2023-02-26T09:01:06;4.70;99.90
29731;DHT22;16639;51.488;0.152;2023-02-26T09:03:34;5.10;99.90
29731;DHT22;16639;51.488;0.152;2023-02-26T09:06:02;5.10;99.90
29731;DHT22;16639;51.488;0.152;2023-02-26T09:08:31;5.10;99.90
29731;DHT22;16639;51.488;0.152;2023-02-26T09:11:01;5.10;99.90
29731;DHT22;16639;51.488;0.152;2023-02-26T09:13:29;5.20;99.90
29731;DHT22;16639;51.488;0.152;2023-02-26T09:15:56;5.40;99.90
29731;DHT22;16639;51.488;0.152;2023-02-26T09:18:24;5.20;99.90
29731;DHT22;16639;51.488;0.152;2023-02-26T09:20:51;5.30;99.90
29731;DHT22;16639;51.488;0.152;2023-02-26T09:23:19;5.40;99.90
29731;DHT22;16639;51.488;0.152;2023-02-26T09:25:51;5.40;99.90
29731;DHT22;16639;51.488;0.152;2023-02-26T09:28:20;5.40;99.90
29731;DHT22;16639;51.488;0.152;2023-02-26T09:30:52;5.50;99.90
29731;DHT22;16639;51.488;0.152;2023-02-26T09:33:20;5.50;99.90
29731;DHT22;16639;51.488;0.152;2023-02-26T09:35:49;5.60;99.90
29731;DHT22;16639;51.488;0.152;2023-02-26T09:38:17;5.50;99.90
29731;DHT22;16639;51.488;0.152;2023-02-26T09:41:16;5.60;99.90
29731;DHT22;16639;51.488;0.152;2023-02-26T09:52:43;5.90;99.90
29731;DHT22;16639;51.488;0.152;2023-02-26T09:55:27;6.00;99.90
29731;DHT22;16639;51.488;0.152;2023-02-26T09:58:03;5.90;99.90
29731;DHT22;16639;51.488;0.152;2023-02-26T10:00:43;5.90;99.90
29731;DHT22;16639;51.488;0.152;2023-02-26T10:06:11;6.00;99.90
29731;DHT22;16639;51.488;0.152;2023-02-26T10:12:01;6.10;99.90
29731;DHT22;16639;51.488;0.152;2023-02-26T10:19:59;6.30;99.90
29731;DHT22;16639;51.488;0.152;2023-02-26T10:23:00;6.30;99.90
29731;DHT22;16639;51.488;0.152;2023-02-26T10:25:37;6.30;99.90
29731;DHT22;16639;51.488;0.152;2023-02-26T10:30:50;6.40;99.90
29731;DHT22;16639;51.488;0.152;2023-02-26T10:36:38;6.50;99.90
29731;DHT22;16639;51.488;0.152;2023-02-26T10:42:20;6.60;99.90
29731;DHT22;16639;51.488;0.152;2023-02-26T10:50:21;6.70;99.90
29731;DHT22;16639;51.488;0.152;2023-02-26T10:52:50;6.70;99.90
29731;DHT22;16639;51.488;0.152;2023-02-26T10:58:13;6.90;99.90
29731;DHT22;16639;51.488;0.152;2023-02-26T11:00:44;6.90;99.90
29731;DHT22;16639;51.488;0.152;2023-02-26T11:03:39;6.70;99.90
29731;DHT22;16639;51.488;0.152;2023-02-26T11:06:10;8.00;99.90
29731;DHT22;16639;51.488;0.152;2023-02-26T11:08:51;7.00;99.90
29731;DHT22;16639;51.488;0.152;2023-02-26T11:14:09;7.20;99.90
29731;DHT22;16639;51.488;0.152;2023-02-26T11:16:55;7.10;99.90
29731;DHT22;16639;51.488;0.152;2023-02-26T11:19:36;7.20;99.90
29731;DHT22;16639;51.488;0.152;2023-02-26T11:22:05;7.10;99.90
29731;DHT22;16639;51.488;0.152;2023-02-26T11:24:41;7.20;99.90
29731;DHT22;16639;51.488;0.152;2023-02-26T11:27:19;7.20;99.90
29731;DHT22;16639;51.488;0.152;2023-02-26T11:29:53;7.30;99.90
29731;DHT22;16639;51.488;0.152;2023-02-26T11:32:23;7.40;99.90
29731;DHT22;16639;51.488;0.152;2023-02-26T11:34:55;7.40;99.90
29731;DHT22;16639;51.488;0.152;2023-02-26T11:37:30;7.40;99.90
29731;DHT22;16639;51.488;0.152;2023-02-26T11:40:16;7.40;99.90
29731;DHT22;16639;51.488;0.152;2023-02-26T11:42:50;7.40;99.90
29731;DHT22;16639;51.488;0.152;2023-02-26T11:45:19;7.40;99.90
29731;DHT22;16639;51.488;0.152;2023-02-26T11:47:51;7.50;99.90
29731;DHT22;16639;51.488;0.152;2023-02-26T11:50:21;7.40;99.90
29731;DHT22;16639;51.488;0.152;2023-02-26T11:53:03;7.50;99.90
29731;DHT22;16639;51.488;0.152;2023-02-26T11:55:34;7.60;99.90
29731;DHT22;16639;51.488;0.152;2023-02-26T11:58:13;7.60;99.90
29731;DHT22;16639;51.488;0.152;2023-02-26T12:00:42;7.70;99.90
29731;DHT22;16639;51.488;0.152;2023-02-26T12:03:21;7.70;99.90
29731;DHT22;16639;51.488;0.152;2023-02-26T12:05:50;7.90;99.90
29731;DHT22;16639;51.488;0.152;2023-02-26T12:08:32;8.30;99.90
29731;DHT22;16639;51.488;0.152;2023-02-26T12:14:31;7.80;99.90
29731;DHT22;16639;51.488;0.152;2023-02-26T12:17:34;7.70;99.90
29731;DHT22;16639;51.488;0.152;2023-02-26T12:20:31;7.70;99.90
29731;DHT22;16639;51.488;0.152;2023-02-26T12:23:11;7.80;99.90
29731;DHT22;16639;51.488;0.152;2023-02-26T12:26:17;7.80;99.90
29731;DHT22;16639;51.488;0.152;2023-02-26T12:34:42;7.90;99.90
29731;DHT22;16639;51.488;0.152;2023-02-26T12:37:27;7.80;99.90
29731;DHT22;16639;51.488;0.152;2023-02-26T12:40:04;7.70;99.90
29731;DHT22;16639;51.488;0.152;2023-02-26T12:47:57;7.30;99.90
29731;DHT22;16639;51.488;0.152;2023-02-26T12:53:38;7.30;99.90
29731;DHT22;16639;51.488;0.152;2023-02-26T12:58:52;7.10;99.90
29731;DHT22;16639;51.488;0.152;2023-02-26T13:01:50;7.10;99.90
29731;DHT22;16639;51.488;0.152;2023-02-26T13:17:59;7.00;99.90
29731;DHT22;16639;51.488;0.152;2023-02-26T13:20:28;7.10;99.90
29731;DHT22;16639;51.488;0.152;2023-02-26T13:22:59;7.10;99.90
29731;DHT22;16639;51.488;0.152;2023-02-26T13:25:40;7.10;99.90
29731;DHT22;16639;51.488;0.152;2023-02-26T13:31:00;7.20;99.90
29731;DHT22;16639;51.488;0.152;2023-02-26T13:33:31;7.20;99.90
29731;DHT22;16639;51.488;0.152;2023-02-26T13:36:00;7.30;99.90
29731;DHT22;16639;51.488;0.152;2023-02-26T13:38:37;7.30;99.90
29731;DHT22;16639;51.488;0.152;2023-02-26T13:43:54;7.40;99.90
29731;DHT22;16639;51.488;0.152;2023-02-26T13:46:50;7.50;99.90
29731;DHT22;16639;51.488;0.152;2023-02-26T13:54:53;7.70;99.90
29731;DHT22;16639;51.488;0.152;2023-02-26T14:00:27;7.60;99.90
29731;DHT22;16639;51.488;0.152;2023-02-26T14:02:57;7.60;99.90
29731;DHT22;16639;51.488;0.152;2023-02-26T14:11:05;7.40;99.90
29731;DHT22;16639;51.488;0.152;2023-02-26T14:14:09;7.20;99.90
29731;DHT22;16639;51.488;0.152;2023-02-26T14:16:40;8.10;99.90
29731;DHT22;16639;51.488;0.152;2023-02-26T14:24:52;7.30;99.90
29731;DHT22;16639;51.488;0.152;2023-02-26T14:27:24;7.30;99.90
29731;DHT22;16639;51.488;0.152;2023-02-26T14:38:20;7.30;99.90
29731;DHT22;16639;51.488;0.152;2023-02-26T14:40:54;7.30;99.90
29731;DHT22;16639;51.488;0.152;2023-02-26T14:43:39;7.20;99.90
29731;DHT22;16639;51.488;0.152;2023-02-26T14:46:08;7.10;99.90
29731;DHT22;16639;51.488;0.152;2023-02-26T14:48:37;7.00;99.90
29731;DHT22;16639;51.488;0.152;2023-02-26T14:51:12;7.00;99.90
29731;DHT22;16639;51.488;0.152;2023-02-26T14:54:01;7.40;99.90
29731;DHT22;16639;51.488;0.152;2023-02-26T14:56:58;7.20;99.90
29731;DHT22;16639;51.488;0.152;2023-02-26T15:02:27;7.00;99.90
29731;DHT22;16639;51.488;0.152;2023-02-26T15:07:53;7.00;99.90
29731;DHT22;16639;51.488;0.152;2023-02-26T15:10:57;7.00;99.90
29731;DHT22;16639;51.488;0.152;2023-02-26T15:13:57;7.00;99.90
29731;DHT22;16639;51.488;0.152;2023-02-26T15:16:48;7.00;99.90
29731;DHT22;16639;51.488;0.152;2023-02-26T15:19:25;7.00;99.90
29731;DHT22;16639;51.488;0.152;2023-02-26T15:24:31;7.30;99.90
29731;DHT22;16639;51.488;0.152;2023-02-26T15:27:02;7.20;99.90
29731;DHT22;16639;51.488;0.152;2023-02-26T15:29:35;6.90;99.90
29731;DHT22;16639;51.488;0.152;2023-02-26T15:32:22;7.30;99.90
29731;DHT22;16639;51.488;0.152;2023-02-26T15:35:20;7.50;99.90
29731;DHT22;16639;51.488;0.152;2023-02-26T15:37:52;7.30;99.90
29731;DHT22;16639;51.488;0.152;2023-02-26T15:40:22;5.30;99.90
29731;DHT22;16639;51.488;0.152;2023-02-26T15:42:53;8.40;99.90
29731;DHT22;16639;51.488;0.152;2023-02-26T15:45:33;7.30;99.90
29731;DHT22;16639;51.488;0.152;2023-02-26T15:48:08;7.30;99.90
29731;DHT22;16639;51.488;0.152;2023-02-26T15:50:42;7.30;99.90
29731;DHT22;16639;51.488;0.152;2023-02-26T15:53:21;7.20;99.90
29731;DHT22;16639;51.488;0.152;2023-02-26T15:55:52;7.20;99.90
29731;DHT22;16639;51.488;0.152;2023-02-26T16:02:30;7.10;99.90
29731;DHT22;16639;51.488;0.152;2023-02-26T16:05:01;7.10;99.90
29731;DHT22;16639;51.488;0.152;2023-02-26T16:07:29;7.10;99.90
29731;DHT22;16639;51.488;0.152;2023-02-26T16:10:04;7.10;99.90
29731;DHT22;16639;51.488;0.152;2023-02-26T16:12:38;7.10;99.90
29731;DHT22;16639;51.488;0.152;2023-02-26T16:15:17;7.00;99.90
29731;DHT22;16639;51.488;0.152;2023-02-26T16:17:47;7.20;99.90
29731;DHT22;16639;51.488;0.152;2023-02-26T16:20:19;7.10;99.90
29731;DHT22;16639;51.488;0.152;2023-02-26T16:22:53;7.20;99.90
29731;DHT22;16639;51.488;0.152;2023-02-26T16:25:27;7.20;99.90
29731;DHT22;16639;51.488;0.152;2023-02-26T16:28:00;7.20;99.90
29731;DHT22;16639;51.488;0.152;2023-02-26T16:30:34;7.20;99.90
29731;DHT22;16639;51.488;0.152;2023-02-26T16:33:04;7.20;99.90
29731;DHT22;16639;51.488;0.152;2023-02-26T16:35:38;7.10;99.90
29731;DHT22;16639;51.488;0.152;2023-02-26T16:38:18;7.30;99.90
29731;DHT22;16639;51.488;0.152;2023-02-26T16:40:57;7.10;99.90
29731;DHT22;16639;51.488;0.152;2023-02-26T16:43:46;7.30;99.90
29731;DHT22;16639;51.488;0.152;2023-02-26T16:46:37;7.00;99.90
29731;DHT22;16639;51.488;0.152;2023-02-26T16:49:58;6.90;99.90
29731;DHT22;16639;51.488;0.152;2023-02-26T16:52:20;7.10;99.90
29731;DHT22;16639;51.488;0.152;2023-02-26T16:55:01;7.10;99.90
29731;DHT22;16639;51.488;0.152;2023-02-26T16:57:55;7.10;99.90
29731;DHT22;16639;51.488;0.152;2023-02-26T17:04:00;7.00;99.90
29731;DHT22;16639;51.488;0.152;2023-02-26T17:06:42;7.00;99.90
29731;DHT22;16639;51.488;0.152;2023-02-26T17:12:03;6.90;99.90
29731;DHT22;16639;51.488;0.152;2023-02-26T17:14:37;6.90;99.90
29731;DHT22;16639;51.488;0.152;2023-02-26T17:17:07;6.80;99.90
29731;DHT22;16639;51.488;0.152;2023-02-26T17:19:40;6.70;99.90
29731;DHT22;16639;51.488;0.152;2023-02-26T17:22:12;6.60;99.90
29731;DHT22;16639;51.488;0.152;2023-02-26T17:24:42;6.60;99.90
29731;DHT22;16639;51.488;0.152;2023-02-26T17:27:15;6.80;99.90
29731;DHT22;16639;51.488;0.152;2023-02-26T17:29:44;6.60;99.90
29731;DHT22;16639;51.488;0.152;2023-02-26T17:32:24;6.60;99.90
29731;DHT22;16639;51.488;0.152;2023-02-26T17:34:53;6.50;99.90
29731;DHT22;16639;51.488;0.152;2023-02-26T17:37:30;6.50;99.90
29731;DHT22;16639;51.488;0.152;2023-02-26T17:40:00;6.50;99.90
29731;DHT22;16639;51.488;0.152;2023-02-26T17:42:27;6.50;99.90
29731;DHT22;16639;51.488;0.152;2023-02-26T17:44:55;6.40;99.90
29731;DHT22;16639;51.488;0.152;2023-02-26T17:47:24;6.40;99.90
29731;DHT22;16639;51.488;0.152;2023-02-26T17:49:52;6.30;99.90
29731;DHT22;16639;51.488;0.152;2023-02-26T17:52:20;6.40;99.90
29731;DHT22;16639;51.488;0.152;2023-02-26T17:54:49;6.40;99.90
29731;DHT22;16639;51.488;0.152;2023-02-26T17:57:19;6.40;99.90
29731;DHT22;16639;51.488;0.152;2023-02-26T17:59:47;6.40;99.90
29731;DHT22;16639;51.488;0.152;2023-02-26T18:02:19;6.30;99.90
29731;DHT22;16639;51.488;0.152;2023-02-26T18:04:48;6.30;99.90
29731;DHT22;16639;51.488;0.152;2023-02-26T18:07:16;6.20;99.90
29731;DHT22;16639;51.488;0.152;2023-02-26T18:09:45;6.20;99.90
29731;DHT22;16639;51.488;0.152;2023-02-26T18:12:18;6.30;99.90
29731;DHT22;16639;51.488;0.152;2023-02-26T18:14:47;6.20;99.90
29731;DHT22;16639;51.488;0.152;2023-02-26T18:17:22;5.60;99.90
29731;DHT22;16639;51.488;0.152;2023-02-26T18:19:50;6.20;99.90
29731;DHT22;16639;51.488;0.152;2023-02-26T18:22:19;6.20;99.90
29731;DHT22;16639;51.488;0.152;2023-02-26T18:24:51;6.10;99.90
29731;DHT22;16639;51.488;0.152;2023-02-26T18:27:21;6.10;99.90
29731;DHT22;16639;51.488;0.152;2023-02-26T18:29:48;6.10;99.90
29731;DHT22;16639;51.488;0.152;2023-02-26T18:32:22;6.10;99.90
29731;DHT22;16639;51.488;0.152;2023-02-26T18:34:50;6.00;99.90
29731;DHT22;16639;51.488;0.152;2023-02-26T18:37:20;6.00;99.90
29731;DHT22;16639;51.488;0.152;2023-02-26T18:39:48;6.00;99.90
29731;DHT22;16639;51.488;0.152;2023-02-26T18:42:24;5.90;99.90
29731;DHT22;16639;51.488;0.152;2023-02-26T18:44:52;5.90;99.90
29731;DHT22;16639;51.488;0.152;2023-02-26T18:47:21;5.80;99.90
29731;DHT22;16639;51.488;0.152;2023-02-26T18:49:49;5.80;99.90
29731;DHT22;16639;51.488;0.152;2023-02-26T18:52:17;5.80;99.90
29731;DHT22;16639;51.488;0.152;2023-02-26T18:54:44;5.90;99.90
29731;DHT22;16639;51.488;0.152;2023-02-26T18:57:12;5.90;99.90
29731;DHT22;16639;51.488;0.152;2023-02-26T18:59:39;5.80;99.90
29731;DHT22;16639;51.488;0.152;2023-02-26T19:02:09;5.80;99.90
29731;DHT22;16639;51.488;0.152;2023-02-26T19:04:38;6.20;99.90
29731;DHT22;16639;51.488;0.152;2023-02-26T19:07:06;6.00;99.90